Time;durP1;ratioP1;P1;durP2;ratioP2;P2;SDS_P1;SDS_P2;PMS_P1;PMS_P2;Temp;Humidity;BMP_temperature;BMP_pressure;BME280_temperature;BME280_humidity;BME280_pressure;Samples;Min_cycle;Max_cycle;Signal;HPM_P1;HPM_P2
2022/05/27 00:00:20;;;;;;;17.08;4.78;;;;;;;;;;5083135;28;20038;-66
2022/05/27 00:02:47;;;;;;;22.40;5.28;;;;;;;;;;5081117;28;20161;-66
2022/05/27 00:05:14;;;;;;;24.80;5.43;;;;;;;;;;5083594;28;20046;-66
2022/05/27 00:07:40;;;;;;;20.45;5.20;;;;;;;;;;5078463;28;20076;-65
2022/05/27 00:10:06;;;;;;;22.27;5.15;;;;;;;;;;5085339;28;20589;-67
2022/05/27 00:12:33;;;;;;;19.77;5.53;;;;;;;;;;5081642;28;20028;-66
2022/05/27 00:14:59;;;;;;;14.00;4.72;;;;;;;;;;5084428;28;20444;-66
2022/05/27 00:17:25;;;;;;;23.17;7.45;;;;;;;;;;5077912;28;20088;-65
2022/05/27 00:19:51;;;;;;;15.85;4.90;;;;;;;;;;5079282;28;20046;-67
2022/05/27 00:22:17;;;;;;;14.60;4.82;;;;;;;;;;5081753;28;20127;-65
2022/05/27 00:24:43;;;;;;;12.35;4.95;;;;;;;;;;5083869;28;20042;-65
2022/05/27 00:27:09;;;;;;;15.15;5.72;;;;;;;;;;5077689;28;20059;-65
2022/05/27 00:29:35;;;;;;;16.00;5.22;;;;;;;;;;5083440;28;20125;-65
2022/05/27 00:32:02;;;;;;;13.73;5.32;;;;;;;;;;5080943;28;20024;-66
2022/05/27 00:34:28;;;;;;;10.73;5.72;;;;;;;;;;5084079;28;20032;-65
2022/05/27 00:36:54;;;;;;;16.85;6.40;;;;;;;;;;5080503;28;20505;-66
2022/05/27 00:39:20;;;;;;;25.98;8.57;;;;;;;;;;5082847;28;20261;-66
2022/05/27 00:41:46;;;;;;;24.33;8.13;;;;;;;;;;5082357;28;20036;-66
2022/05/27 00:44:12;;;;;;;27.40;8.32;;;;;;;;;;5076633;28;20473;-66
2022/05/27 00:46:40;;;;;;;22.13;8.70;;;;;;;;;;5078430;28;20433;-64
2022/05/27 00:49:13;;;;;;;25.52;9.25;;;;;;;;;;5082700;28;20334;-66
2022/05/27 00:51:49;;;;;;;31.33;10.00;;;;;;;;;;5074537;28;20039;-65
2022/05/27 00:54:18;;;;;;;26.38;9.57;;;;;;;;;;5080388;28;20055;-65
2022/05/27 00:56:46;;;;;;;35.80;10.50;;;;;;;;;;5076855;28;20039;-65
2022/05/27 00:59:24;;;;;;;35.13;10.32;;;;;;;;;;5081889;28;20024;-66
2022/05/27 01:01:50;;;;;;;38.13;10.23;;;;;;;;;;5076793;28;20622;-67
2022/05/27 01:04:16;;;;;;;34.05;10.82;;;;;;;;;;5079531;28;20036;-65
2022/05/27 01:06:42;;;;;;;31.60;9.93;;;;;;;;;;5076947;28;20406;-65
2022/05/27 01:09:08;;;;;;;35.20;10.20;;;;;;;;;;5082741;28;20606;-65
2022/05/27 01:11:35;;;;;;;35.63;9.88;;;;;;;;;;5080964;28;20426;-66
2022/05/27 01:14:04;;;;;;;27.83;8.27;;;;;;;;;;5080388;28;20027;-65
2022/05/27 01:16:48;;;;;;;26.27;7.78;;;;;;;;;;5078081;28;20033;-66
2022/05/27 01:22:41;;;;;;;24.92;7.50;;;;;;;;;;5063220;28;20091;-66
2022/05/27 01:25:19;;;;;;;24.73;7.28;;;;;;;;;;5083161;28;20473;-65
2022/05/27 01:27:48;;;;;;;18.98;7.32;;;;;;;;;;5079353;28;20020;-66
2022/05/27 01:30:24;;;;;;;24.67;6.85;;;;;;;;;;5082928;28;20024;-65
2022/05/27 01:33:05;;;;;;;18.23;6.50;;;;;;;;;;5076336;28;20082;-65
2022/05/27 01:35:31;;;;;;;15.35;5.63;;;;;;;;;;5082996;28;20040;-65
2022/05/27 01:38:00;;;;;;;19.55;5.88;;;;;;;;;;5078262;28;20058;-65
2022/05/27 01:40:32;;;;;;;18.88;5.93;;;;;;;;;;5082567;28;20103;-67
2022/05/27 01:43:02;;;;;;;19.20;5.80;;;;;;;;;;5074961;28;20051;-66
2022/05/27 01:45:57;;;;;;;20.65;5.88;;;;;;;;;;5085551;28;20031;-65
2022/05/27 01:48:28;;;;;;;20.17;5.90;;;;;;;;;;5070787;28;20036;-65
2022/05/27 01:50:54;;;;;;;15.77;5.32;;;;;;;;;;5084126;28;20221;-65
2022/05/27 01:53:20;;;;;;;15.32;5.13;;;;;;;;;;5083886;28;20077;-66
2022/05/27 01:55:49;;;;;;;14.23;5.82;;;;;;;;;;5086148;28;20419;-65
2022/05/27 01:58:17;;;;;;;15.43;5.32;;;;;;;;;;5080796;28;20024;-65
2022/05/27 02:00:45;;;;;;;16.30;5.07;;;;;;;;;;5086155;28;20064;-66
2022/05/27 02:03:37;;;;;;;11.18;5.13;;;;;;;;;;5081419;28;20033;-65
2022/05/27 02:06:10;;;;;;;14.00;6.28;;;;;;;;;;5083021;28;20024;-67
2022/05/27 02:08:41;;;;;;;10.10;5.95;;;;;;;;;;5082541;28;20043;-65
2022/05/27 02:11:12;;;;;;;18.38;5.95;;;;;;;;;;5086996;28;20499;-65
2022/05/27 02:13:44;;;;;;;18.08;6.40;;;;;;;;;;5081223;28;20440;-65
2022/05/27 02:16:13;;;;;;;20.60;6.32;;;;;;;;;;5081363;28;20036;-66
2022/05/27 02:18:45;;;;;;;14.90;6.85;;;;;;;;;;5080974;28;20176;-65
2022/05/27 02:21:31;;;;;;;20.45;7.53;;;;;;;;;;5086165;28;20032;-66
2022/05/27 02:24:22;;;;;;;21.73;7.65;;;;;;;;;;5070929;28;20490;-65
2022/05/27 02:26:50;;;;;;;22.52;7.78;;;;;;;;;;5078678;28;20028;-66
2022/05/27 02:29:18;;;;;;;28.65;9.60;;;;;;;;;;5081098;28;20043;-66
2022/05/27 02:31:47;;;;;;;25.17;9.07;;;;;;;;;;5080782;28;20055;-66
2022/05/27 02:37:13;;;;;;;25.15;9.90;;;;;;;;;;5082933;28;20055;-66
2022/05/27 02:39:39;;;;;;;30.17;9.88;;;;;;;;;;5082512;28;20123;-67
2022/05/27 02:42:05;;;;;;;29.80;11.70;;;;;;;;;;5083547;28;20036;-65
2022/05/27 02:44:43;;;;;;;36.95;10.40;;;;;;;;;;5081026;28;20032;-65
2022/05/27 02:47:15;;;;;;;32.70;10.30;;;;;;;;;;5082182;28;20031;-66
2022/05/27 02:49:41;;;;;;;33.55;10.02;;;;;;;;;;5085249;28;20058;-66
2022/05/27 02:52:26;;;;;;;29.75;10.60;;;;;;;;;;5080909;28;20024;-66
2022/05/27 02:54:55;;;;;;;37.42;11.02;;;;;;;;;;5078805;28;20032;-66
2022/05/27 02:57:27;;;;;;;37.70;11.60;;;;;;;;;;5083243;28;20131;-66
2022/05/27 02:59:53;;;;;;;36.25;11.65;;;;;;;;;;5082625;28;20031;-66
2022/05/27 03:02:20;;;;;;;37.60;10.98;;;;;;;;;;5080218;28;20404;-66
2022/05/27 03:04:51;;;;;;;34.25;12.15;;;;;;;;;;5082422;28;20093;-65
2022/05/27 03:07:17;;;;;;;33.83;11.85;;;;;;;;;;5078470;28;20027;-65
2022/05/27 03:10:01;;;;;;;49.25;12.82;;;;;;;;;;5084917;28;20294;-66
2022/05/27 03:12:30;;;;;;;32.55;11.85;;;;;;;;;;5082119;28;21230;-66
2022/05/27 03:15:02;;;;;;;36.72;13.68;;;;;;;;;;5081792;28;20032;-66
2022/05/27 03:17:28;;;;;;;45.05;14.25;;;;;;;;;;5083307;28;20023;-66
2022/05/27 03:20:13;;;;;;;35.95;11.88;;;;;;;;;;5084739;28;20016;-66
2022/05/27 03:22:39;;;;;;;35.95;13.02;;;;;;;;;;5080658;28;20166;-66
2022/05/27 03:25:12;;;;;;;40.05;12.85;;;;;;;;;;5079853;28;20501;-66
2022/05/27 03:27:46;;;;;;;45.67;14.05;;;;;;;;;;5080843;28;20024;-66
2022/05/27 03:30:21;;;;;;;43.97;13.60;;;;;;;;;;5079433;28;20071;-67
2022/05/27 03:32:50;;;;;;;39.10;12.93;;;;;;;;;;5078044;28;20396;-66
2022/05/27 03:35:24;;;;;;;50.53;12.43;;;;;;;;;;5078710;28;20048;-69
2022/05/27 03:38:11;;;;;;;39.92;12.68;;;;;;;;;;5078720;28;20495;-65
2022/05/27 03:40:42;;;;;;;39.55;13.20;;;;;;;;;;5080123;28;20045;-66
2022/05/27 03:43:08;;;;;;;;;;;;;;;;;;5080100;28;20031;-66
2022/05/27 03:45:46;;;;;;;35.65;12.40;;;;;;;;;;5078763;28;19961;-66
2022/05/27 03:48:12;;;;;;;43.03;11.95;;;;;;;;;;5078998;28;20098;-66
2022/05/27 03:50:38;;;;;;;42.08;12.55;;;;;;;;;;5079747;28;20105;-67
2022/05/27 03:53:04;;;;;;;35.63;12.80;;;;;;;;;;5072655;28;20048;-67
2022/05/27 03:55:30;;;;;;;38.80;11.93;;;;;;;;;;5083127;28;20089;-67
2022/05/27 03:57:56;;;;;;;41.17;13.48;;;;;;;;;;5079772;28;20051;-67
2022/05/27 04:00:23;;;;;;;34.88;12.43;;;;;;;;;;5082074;28;20040;-67
2022/05/27 04:02:49;;;;;;;35.30;11.38;;;;;;;;;;5082184;28;20153;-66
2022/05/27 04:05:16;;;;;;;36.20;10.43;;;;;;;;;;5079272;28;20032;-67
2022/05/27 04:07:42;;;;;;;35.17;10.30;;;;;;;;;;5082541;28;20016;-67
2022/05/27 04:10:09;;;;;;;26.27;9.80;;;;;;;;;;5082614;28;20056;-66
2022/05/27 04:12:36;;;;;;;31.20;9.57;;;;;;;;;;5079797;28;20581;-66
2022/05/27 04:15:02;;;;;;;24.23;10.52;;;;;;;;;;5082816;28;20457;-66
2022/05/27 04:17:30;;;;;;;34.17;9.48;;;;;;;;;;5082485;28;20401;-66
2022/05/27 04:19:56;;;;;;;29.63;9.50;;;;;;;;;;5079686;28;20604;-65
2022/05/27 04:22:22;;;;;;;28.75;9.18;;;;;;;;;;5075209;28;20445;-66
2022/05/27 04:24:48;;;;;;;27.25;8.60;;;;;;;;;;5081575;28;20430;-66
2022/05/27 04:27:16;;;;;;;27.63;8.48;;;;;;;;;;5080151;28;20063;-66
2022/05/27 04:29:43;;;;;;;25.90;8.15;;;;;;;;;;5083975;28;20453;-65
2022/05/27 04:32:09;;;;;;;16.63;7.45;;;;;;;;;;5080203;28;20436;-66
2022/05/27 04:34:35;;;;;;;23.38;6.95;;;;;;;;;;5081607;28;20093;-67
2022/05/27 04:37:01;;;;;;;21.27;6.53;;;;;;;;;;5082410;28;20290;-66
2022/05/27 04:39:27;;;;;;;23.67;5.70;;;;;;;;;;5083264;28;20032;-66
2022/05/27 04:41:53;;;;;;;18.90;5.40;;;;;;;;;;5080998;28;20475;-66
2022/05/27 04:44:19;;;;;;;15.15;5.57;;;;;;;;;;5079402;28;20493;-66
2022/05/27 04:46:45;;;;;;;24.25;6.25;;;;;;;;;;5083591;28;20032;-66
2022/05/27 04:49:59;;;;;;;18.42;5.15;;;;;;;;;;5076751;28;20021;-65
2022/05/27 04:52:01;;;;;;;17.60;5.78;;;;;;;;;;5075874;28;20455;-67
2022/05/27 04:54:27;;;;;;;16.88;5.63;;;;;;;;;;5079979;28;20024;-66
2022/05/27 04:56:55;;;;;;;20.30;4.90;;;;;;;;;;5073714;28;20094;-66
2022/05/27 04:59:21;;;;;;;23.52;5.50;;;;;;;;;;5082271;28;20201;-67
2022/05/27 05:01:47;;;;;;;19.45;4.88;;;;;;;;;;5082267;28;20044;-66
2022/05/27 05:04:13;;;;;;;20.95;4.95;;;;;;;;;;5079948;28;20134;-67
2022/05/27 05:06:39;;;;;;;19.35;4.88;;;;;;;;;;5081096;28;20133;-66
2022/05/27 05:09:06;;;;;;;15.18;4.10;;;;;;;;;;5082468;28;20081;-67
2022/05/27 05:11:32;;;;;;;17.05;4.75;;;;;;;;;;5079893;28;20036;-67
2022/05/27 05:13:58;;;;;;;17.85;5.10;;;;;;;;;;5080571;28;20043;-67
2022/05/27 05:16:25;;;;;;;15.75;4.38;;;;;;;;;;5083657;28;20050;-67
2022/05/27 05:18:51;;;;;;;12.13;3.38;;;;;;;;;;5081234;28;20521;-67
2022/05/27 05:21:17;;;;;;;19.00;3.90;;;;;;;;;;5079463;28;20072;-67
2022/05/27 05:23:43;;;;;;;10.80;2.92;;;;;;;;;;5089864;28;20036;-66
2022/05/27 05:26:09;;;;;;;16.90;3.88;;;;;;;;;;5076392;28;20036;-66
2022/05/27 05:28:35;;;;;;;14.35;3.70;;;;;;;;;;5076072;28;20051;-66
2022/05/27 05:31:01;;;;;;;11.00;2.97;;;;;;;;;;5088317;28;20032;-68
2022/05/27 05:33:27;;;;;;;13.45;2.90;;;;;;;;;;5083462;28;20036;-67
2022/05/27 05:35:53;;;;;;;14.55;2.95;;;;;;;;;;5084719;28;20044;-66
2022/05/27 05:38:19;;;;;;;15.57;3.35;;;;;;;;;;5087817;28;20478;-65
2022/05/27 05:40:46;;;;;;;13.15;2.97;;;;;;;;;;5085624;28;20028;-67
2022/05/27 05:43:13;;;;;;;12.07;2.42;;;;;;;;;;5086118;28;20036;-67
2022/05/27 05:45:40;;;;;;;11.15;2.53;;;;;;;;;;5082379;28;20024;-71
2022/05/27 05:48:06;;;;;;;11.70;2.80;;;;;;;;;;5083221;28;20074;-67
2022/05/27 05:50:33;;;;;;;14.95;2.72;;;;;;;;;;5085442;28;20057;-66
2022/05/27 05:52:59;;;;;;;11.55;2.80;;;;;;;;;;5078259;28;20617;-66
2022/05/27 05:55:26;;;;;;;17.73;2.92;;;;;;;;;;5084634;28;20549;-66
2022/05/27 05:57:52;;;;;;;14.88;2.88;;;;;;;;;;5083098;28;20374;-67
2022/05/27 06:00:23;;;;;;;13.60;2.92;;;;;;;;;;5086065;28;20036;-66
2022/05/27 06:02:49;;;;;;;17.42;3.47;;;;;;;;;;5083589;28;20082;-68
2022/05/27 06:05:15;;;;;;;16.90;3.05;;;;;;;;;;5086270;28;20020;-67
2022/05/27 06:07:42;;;;;;;14.00;3.10;;;;;;;;;;5084888;28;20449;-66
2022/05/27 06:10:08;;;;;;;17.67;3.17;;;;;;;;;;5087369;28;20635;-67
2022/05/27 06:12:35;;;;;;;20.88;3.78;;;;;;;;;;5083150;28;20054;-67
2022/05/27 06:15:01;;;;;;;17.85;3.30;;;;;;;;;;5084604;28;20187;-66
2022/05/27 06:17:27;;;;;;;13.82;3.20;;;;;;;;;;5083883;28;20023;-66
2022/05/27 06:19:53;;;;;;;16.95;2.92;;;;;;;;;;5085581;28;20504;-66
2022/05/27 06:22:19;;;;;;;13.60;2.90;;;;;;;;;;5080248;28;20043;-66
2022/05/27 06:24:46;;;;;;;10.88;2.53;;;;;;;;;;5087905;28;20028;-67
2022/05/27 06:27:12;;;;;;;10.40;2.70;;;;;;;;;;5085204;28;20485;-66
2022/05/27 06:35:08;;;;;;;14.38;3.00;;;;;;;;;;5082895;28;20046;-67
2022/05/27 06:37:35;;;;;;;14.70;3.05;;;;;;;;;;5083537;28;20059;-66
2022/05/27 06:40:01;;;;;;;21.10;3.80;;;;;;;;;;5086636;28;20090;-66
2022/05/27 06:42:27;;;;;;;16.77;2.85;;;;;;;;;;5083152;28;20474;-66
2022/05/27 06:44:53;;;;;;;17.23;3.53;;;;;;;;;;5084964;28;21658;-66
2022/05/27 06:47:19;;;;;;;14.55;2.90;;;;;;;;;;5084407;28;20048;-65
2022/05/27 06:49:45;;;;;;;14.80;3.63;;;;;;;;;;5084219;28;20028;-65
2022/05/27 06:52:13;;;;;;;18.25;3.60;;;;;;;;;;5082955;28;20047;-66
2022/05/27 06:54:39;;;;;;;18.95;4.05;;;;;;;;;;5085830;28;20560;-65
2022/05/27 06:57:05;;;;;;;19.83;3.40;;;;;;;;;;5076882;28;20497;-66
2022/05/27 06:59:32;;;;;;;17.63;3.38;;;;;;;;;;5081626;28;20574;-65
2022/05/27 07:01:58;;;;;;;19.20;2.90;;;;;;;;;;5078687;28;20039;-66
2022/05/27 07:04:24;;;;;;;19.25;3.60;;;;;;;;;;5080059;28;20252;-66
2022/05/27 07:06:50;;;;;;;15.40;2.90;;;;;;;;;;5083650;28;20035;-72
2022/05/27 07:09:18;;;;;;;18.45;3.28;;;;;;;;;;5083918;28;20028;-73
2022/05/27 07:11:45;;;;;;;17.67;3.25;;;;;;;;;;5080336;28;20048;-72
2022/05/27 07:14:13;;;;;;;21.65;3.92;;;;;;;;;;5083070;28;20032;-72
2022/05/27 07:16:39;;;;;;;13.77;3.25;;;;;;;;;;5080218;28;20170;-72
2022/05/27 07:19:05;;;;;;;13.40;3.00;;;;;;;;;;5085258;28;20051;-71
2022/05/27 07:21:31;;;;;;;15.95;3.55;;;;;;;;;;5087447;28;20032;-71
2022/05/27 07:23:57;;;;;;;12.43;3.22;;;;;;;;;;5082888;28;20028;-71
2022/05/27 07:26:24;;;;;;;19.85;3.33;;;;;;;;;;5081603;28;20041;-72
2022/05/27 07:28:50;;;;;;;14.25;3.03;;;;;;;;;;5079824;28;20036;-71
2022/05/27 07:31:17;;;;;;;13.20;2.60;;;;;;;;;;5080791;28;20059;-71
2022/05/27 07:33:44;;;;;;;16.92;3.05;;;;;;;;;;5082561;28;20032;-71
2022/05/27 07:36:10;;;;;;;19.75;3.55;;;;;;;;;;5083927;28;20127;-72
2022/05/27 07:38:36;;;;;;;16.40;3.25;;;;;;;;;;5083697;28;20044;-72
2022/05/27 07:41:02;;;;;;;21.02;3.78;;;;;;;;;;5078689;28;20588;-72
2022/05/27 07:43:28;;;;;;;17.20;2.92;;;;;;;;;;5082663;28;20050;-73
2022/05/27 07:45:56;;;;;;;17.00;2.92;;;;;;;;;;5079522;28;20032;-71
2022/05/27 07:48:22;;;;;;;16.08;3.55;;;;;;;;;;5083939;28;20050;-70
2022/05/27 07:50:48;;;;;;;15.70;3.40;;;;;;;;;;5084376;28;20028;-71
2022/05/27 07:53:16;;;;;;;16.30;3.97;;;;;;;;;;5077096;28;20144;-70
2022/05/27 07:55:42;;;;;;;18.98;3.47;;;;;;;;;;5078546;28;20120;-70
2022/05/27 07:58:08;;;;;;;14.57;3.35;;;;;;;;;;5082896;28;20123;-72
2022/05/27 08:00:37;;;;;;;20.75;4.45;;;;;;;;;;5088805;28;20038;-73
2022/05/27 08:03:03;;;;;;;15.25;3.22;;;;;;;;;;5087810;28;20036;-73
2022/05/27 08:05:30;;;;;;;17.70;3.80;;;;;;;;;;5088387;28;20028;-71
2022/05/27 08:07:57;;;;;;;13.90;3.33;;;;;;;;;;5081918;28;20034;-73
2022/05/27 08:10:25;;;;;;;17.45;3.53;;;;;;;;;;5084891;28;20054;-71
2022/05/27 08:12:51;;;;;;;16.40;3.35;;;;;;;;;;5082850;28;20047;-73
2022/05/27 08:15:18;;;;;;;14.88;3.15;;;;;;;;;;5088229;28;20032;-72
2022/05/27 08:17:44;;;;;;;16.52;3.47;;;;;;;;;;5086204;28;20073;-73
2022/05/27 08:20:11;;;;;;;19.00;3.15;;;;;;;;;;5081883;28;20040;-72
2022/05/27 08:22:37;;;;;;;16.48;3.33;;;;;;;;;;5083501;28;20038;-73
2022/05/27 08:25:04;;;;;;;14.20;3.08;;;;;;;;;;5083497;28;20681;-72
2022/05/27 08:27:30;;;;;;;13.93;3.10;;;;;;;;;;5084210;28;20068;-73
2022/05/27 08:29:56;;;;;;;11.00;2.75;;;;;;;;;;5082663;28;20047;-74
2022/05/27 08:32:22;;;;;;;14.40;3.05;;;;;;;;;;5085307;28;20485;-74
2022/05/27 08:40:36;;;;;;;16.35;3.78;;;;;;;;;;5084248;28;20047;-73
2022/05/27 08:43:22;;;;;;;12.18;3.20;;;;;;;;;;5084163;28;20072;-72
2022/05/27 08:45:51;;;;;;;12.43;3.38;;;;;;;;;;5083663;28;20024;-73
2022/05/27 08:48:19;;;;;;;11.10;3.28;;;;;;;;;;5082196;28;20024;-72
2022/05/27 08:50:45;;;;;;;19.92;3.25;;;;;;;;;;5088123;28;20102;-75
2022/05/27 08:53:17;;;;;;;19.98;3.72;;;;;;;;;;5089672;28;20063;-72
2022/05/27 09:01:18;;;;;;;15.65;3.33;;;;;;;;;;5084785;28;20043;-71
2022/05/27 09:03:47;;;;;;;16.55;3.20;;;;;;;;;;5082933;28;20081;-76
2022/05/27 09:06:13;;;;;;;17.33;4.28;;;;;;;;;;5083895;28;20077;-73
2022/05/27 09:08:39;;;;;;;12.32;3.17;;;;;;;;;;5080193;28;20397;-70
2022/05/27 09:11:26;;;;;;;21.13;3.40;;;;;;;;;;5081500;28;20012;-71
2022/05/27 09:14:11;;;;;;;18.20;4.15;;;;;;;;;;5082485;28;20117;-76
2022/05/27 09:16:40;;;;;;;17.17;3.22;;;;;;;;;;5082507;28;20520;-71
2022/05/27 09:19:15;;;;;;;14.27;3.95;;;;;;;;;;5081413;28;20136;-72
2022/05/27 09:21:51;;;;;;;17.20;3.53;;;;;;;;;;5083286;28;20488;-81
2022/05/27 09:24:17;;;;;;;12.80;3.15;;;;;;;;;;5082175;28;20028;-74
2022/05/27 09:26:46;;;;;;;16.40;3.10;;;;;;;;;;5079460;28;20032;-74
2022/05/27 09:29:31;;;;;;;12.30;3.30;;;;;;;;;;5083544;28;20024;-71
2022/05/27 09:32:03;;;;;;;14.85;3.15;;;;;;;;;;5079489;28;20020;-70
2022/05/27 09:34:30;;;;;;;19.88;3.53;;;;;;;;;;5081983;28;20431;-73
2022/05/27 09:36:59;;;;;;;14.18;3.22;;;;;;;;;;5083792;28;20078;-71
2022/05/27 09:39:25;;;;;;;16.80;3.53;;;;;;;;;;5085202;28;20040;-73
2022/05/27 09:42:10;;;;;;;14.25;3.75;;;;;;;;;;5082562;28;20040;-72
2022/05/27 09:44:40;;;;;;;16.73;3.58;;;;;;;;;;5081470;28;20070;-73
2022/05/27 09:47:06;;;;;;;13.82;3.00;;;;;;;;;;5082926;28;20070;-72
2022/05/27 09:49:33;;;;;;;18.55;3.95;;;;;;;;;;5067151;28;20028;-72
2022/05/27 09:52:01;;;;;;;17.77;4.20;;;;;;;;;;5081970;28;20028;-73
2022/05/27 09:54:46;;;;;;;21.55;3.83;;;;;;;;;;5081512;28;20028;-73
2022/05/27 09:57:13;;;;;;;18.48;3.00;;;;;;;;;;5079717;28;20028;-72
2022/05/27 09:59:41;;;;;;;14.98;3.25;;;;;;;;;;5082493;28;20036;-72
2022/05/27 10:02:13;;;;;;;17.35;3.72;;;;;;;;;;5081886;28;20039;-74
2022/05/27 10:04:49;;;;;;;17.50;3.72;;;;;;;;;;5082777;28;20028;-73
2022/05/27 10:07:23;;;;;;;20.63;3.40;;;;;;;;;;5086327;28;20119;-72
2022/05/27 10:09:49;;;;;;;16.27;3.13;;;;;;;;;;5086265;28;20103;-73
2022/05/27 10:12:27;;;;;;;15.82;3.03;;;;;;;;;;5088838;28;20055;-73
2022/05/27 10:14:54;;;;;;;18.85;4.15;;;;;;;;;;5085674;28;20046;-72
2022/05/27 10:17:29;;;;;;;25.52;4.18;;;;;;;;;;5085535;28;20046;-74
2022/05/27 10:20:12;;;;;;;19.23;3.88;;;;;;;;;;5085300;28;20072;-72
2022/05/27 10:22:39;;;;;;;14.25;3.33;;;;;;;;;;5085357;28;20028;-73
2022/05/27 10:25:06;;;;;;;17.05;4.10;;;;;;;;;;5085247;28;20460;-71
2022/05/27 10:27:37;;;;;;;16.50;3.38;;;;;;;;;;5088154;28;20028;-73
2022/05/27 10:30:06;;;;;;;17.63;3.63;;;;;;;;;;5082915;28;20028;-72
2022/05/27 10:32:35;;;;;;;16.08;3.22;;;;;;;;;;5088113;28;20093;-73
2022/05/27 10:35:03;;;;;;;18.70;3.55;;;;;;;;;;5082729;28;20795;-72
2022/05/27 10:37:35;;;;;;;13.38;3.20;;;;;;;;;;5085327;28;20060;-75
2022/05/27 10:40:01;;;;;;;15.77;3.63;;;;;;;;;;5088966;28;20024;-71
2022/05/27 10:42:33;;;;;;;20.02;3.58;;;;;;;;;;5089803;28;20032;-72
2022/05/27 10:45:19;;;;;;;18.17;3.63;;;;;;;;;;5088126;28;20032;-74
2022/05/27 10:48:00;;;;;;;17.20;4.05;;;;;;;;;;5090989;28;20024;-73
2022/05/27 10:50:31;;;;;;;20.05;4.20;;;;;;;;;;5091045;28;20529;-72
2022/05/27 10:53:00;;;;;;;18.50;4.25;;;;;;;;;;5088963;28;20111;-71
2022/05/27 10:55:42;;;;;;;23.23;3.70;;;;;;;;;;5070216;28;20230;-73
2022/05/27 11:04:33;;;;;;;17.10;3.97;;;;;;;;;;5090637;28;20039;-72
2022/05/27 11:07:17;;;;;;;20.13;3.88;;;;;;;;;;5090706;28;20028;-73
2022/05/27 11:09:50;;;;;;;17.65;4.05;;;;;;;;;;5089470;28;20100;-71
2022/05/27 11:12:27;;;;;;;16.52;3.65;;;;;;;;;;5090118;28;20089;-72
2022/05/27 11:15:11;;;;;;;17.15;3.53;;;;;;;;;;5089922;28;20457;-73
2022/05/27 11:17:37;;;;;;;15.10;3.97;;;;;;;;;;5086624;28;20538;-72
2022/05/27 11:20:09;;;;;;;16.10;4.05;;;;;;;;;;5090606;28;20051;-72
2022/05/27 11:22:38;;;;;;;11.23;2.80;;;;;;;;;;5090058;28;20257;-73
2022/05/27 11:25:07;;;;;;;20.50;3.60;;;;;;;;;;5089909;28;20028;-72
2022/05/27 11:27:39;;;;;;;19.42;3.90;;;;;;;;;;5088963;28;20028;-72
2022/05/27 11:30:17;;;;;;;17.95;3.38;;;;;;;;;;5090627;28;20092;-72
2022/05/27 11:32:52;;;;;;;14.13;3.33;;;;;;;;;;5089804;28;20028;-72
2022/05/27 11:35:37;;;;;;;20.67;4.70;;;;;;;;;;5090277;28;20028;-70
2022/05/27 11:38:03;;;;;;;14.63;3.42;;;;;;;;;;5090051;28;20378;-72
2022/05/27 11:40:48;;;;;;;15.38;3.40;;;;;;;;;;5090406;28;20488;-71
2022/05/27 11:43:14;;;;;;;11.68;2.60;;;;;;;;;;5089770;28;20024;-71
2022/05/27 11:45:44;;;;;;;14.77;3.08;;;;;;;;;;5089838;28;20024;-72
2022/05/27 11:48:19;;;;;;;13.07;3.00;;;;;;;;;;5089033;28;20123;-72
2022/05/27 11:51:05;;;;;;;16.02;3.10;;;;;;;;;;5090316;28;20479;-72
2022/05/27 11:53:39;;;;;;;17.70;4.38;;;;;;;;;;5089942;28;20031;-70
2022/05/27 11:56:14;;;;;;;14.45;3.25;;;;;;;;;;5090279;28;20055;-72
2022/05/27 11:58:44;;;;;;;20.80;4.00;;;;;;;;;;5088663;28;20031;-70
2022/05/27 12:01:31;;;;;;;14.98;2.97;;;;;;;;;;5088796;28;20101;-72
2022/05/27 12:04:12;;;;;;;32.40;3.90;;;;;;;;;;5077909;28;20032;-73
2022/05/27 12:06:47;;;;;;;17.85;4.32;;;;;;;;;;5089246;28;20016;-72
2022/05/27 12:09:21;;;;;;;18.80;3.20;;;;;;;;;;5089985;28;20020;-71
2022/05/27 12:11:50;;;;;;;18.70;2.72;;;;;;;;;;5088177;28;20024;-72
2022/05/27 12:14:18;;;;;;;12.77;2.70;;;;;;;;;;5089454;28;20036;-72
2022/05/27 12:16:48;;;;;;;16.45;2.75;;;;;;;;;;5089400;28;20024;-73
2022/05/27 12:19:24;;;;;;;15.37;2.77;;;;;;;;;;5089351;28;20048;-70
2022/05/27 12:22:02;;;;;;;11.93;2.70;;;;;;;;;;5087739;28;20452;-72
2022/05/27 12:24:31;;;;;;;13.25;2.22;;;;;;;;;;5089692;28;20335;-71
2022/05/27 12:26:58;;;;;;;12.65;3.00;;;;;;;;;;5089815;28;20024;-71
2022/05/27 12:29:25;;;;;;;15.32;2.97;;;;;;;;;;5089706;28;20028;-71
2022/05/27 12:31:52;;;;;;;15.98;3.25;;;;;;;;;;5086007;28;20114;-71
2022/05/27 12:34:27;;;;;;;17.90;2.97;;;;;;;;;;5089671;28;20138;-70
2022/05/27 12:36:59;;;;;;;15.93;3.08;;;;;;;;;;5089938;28;20504;-70
2022/05/27 12:39:27;;;;;;;23.85;3.90;;;;;;;;;;5089611;28;20032;-71
2022/05/27 12:42:08;;;;;;;18.00;3.53;;;;;;;;;;5085404;28;20039;-70
2022/05/27 12:44:34;;;;;;;28.30;3.65;;;;;;;;;;5088097;28;20039;-71
2022/05/27 12:47:01;;;;;;;15.45;3.30;;;;;;;;;;5089281;28;20035;-71
2022/05/27 12:49:33;;;;;;;17.60;3.70;;;;;;;;;;5089621;28;20031;-71
2022/05/27 12:51:59;;;;;;;15.48;3.15;;;;;;;;;;5089475;28;20016;-70
2022/05/27 12:54:48;;;;;;;16.30;2.95;;;;;;;;;;5089190;28;20118;-71
2022/05/27 13:03:30;;;;;;;16.45;3.13;;;;;;;;;;5070052;28;20039;-73
2022/05/27 13:06:04;;;;;;;25.20;4.32;;;;;;;;;;5075444;28;20026;-73
2022/05/27 13:08:33;;;;;;;14.77;3.15;;;;;;;;;;5089532;28;20027;-73
2022/05/27 13:10:59;;;;;;;19.95;3.58;;;;;;;;;;5085779;28;20047;-72
2022/05/27 13:13:28;;;;;;;15.90;3.28;;;;;;;;;;5089458;28;20481;-73
2022/05/27 13:16:04;;;;;;;20.40;3.05;;;;;;;;;;5089324;28;20374;-72
2022/05/27 13:18:30;;;;;;;14.75;3.58;;;;;;;;;;5086992;28;20083;-71
2022/05/27 13:21:02;;;;;;;16.33;3.60;;;;;;;;;;5085336;28;20028;-71
2022/05/27 13:23:29;;;;;;;20.45;4.18;;;;;;;;;;5096496;28;20026;-70
2022/05/27 13:26:16;;;;;;;12.23;2.42;;;;;;;;;;5090970;28;20020;-71
2022/05/27 13:28:56;;;;;;;16.90;3.13;;;;;;;;;;5087404;28;20028;-70
2022/05/27 13:31:24;;;;;;;;;;;;;;;;;;5086477;28;20058;-72
2022/05/27 13:33:57;;;;;;;15.45;3.30;;;;;;;;;;5088365;28;20019;-70
2022/05/27 13:36:24;;;;;;;20.45;3.28;;;;;;;;;;5089026;28;20024;-72
2022/05/27 13:38:59;;;;;;;23.13;4.13;;;;;;;;;;5089088;28;20090;-70
2022/05/27 13:41:27;;;;;;;19.80;3.15;;;;;;;;;;5091206;28;20028;-71
2022/05/27 13:43:54;;;;;;;18.48;3.40;;;;;;;;;;5089544;28;20028;-72
2022/05/27 13:46:25;;;;;;;17.63;3.25;;;;;;;;;;5091409;28;20032;-72
2022/05/27 13:48:58;;;;;;;14.40;3.25;;;;;;;;;;5091145;28;20074;-72
2022/05/27 13:51:24;;;;;;;14.30;3.22;;;;;;;;;;5092506;28;20039;-72
2022/05/27 13:53:54;;;;;;;18.75;3.60;;;;;;;;;;5076916;28;20052;-70
2022/05/27 13:56:25;;;;;;;16.92;3.42;;;;;;;;;;5090209;28;20024;-71
2022/05/27 13:58:51;;;;;;;11.30;2.83;;;;;;;;;;5090824;28;20040;-72
2022/05/27 14:01:18;;;;;;;13.00;2.58;;;;;;;;;;5089924;28;20369;-70
2022/05/27 14:03:48;;;;;;;16.17;2.88;;;;;;;;;;5084079;28;20078;-71
2022/05/27 14:06:22;;;;;;;15.45;3.00;;;;;;;;;;5080790;28;20031;-70
2022/05/27 14:08:48;;;;;;;15.43;3.28;;;;;;;;;;5090953;28;20036;-71
2022/05/27 14:11:19;;;;;;;20.38;3.10;;;;;;;;;;5089664;28;20020;-73
2022/05/27 14:13:53;;;;;;;17.92;3.30;;;;;;;;;;5081770;28;20078;-71
2022/05/27 14:16:28;;;;;;;17.23;4.07;;;;;;;;;;5087835;28;20043;-71
2022/05/27 14:18:56;;;;;;;16.70;2.50;;;;;;;;;;5091203;28;20157;-73
2022/05/27 14:24:17;;;;;;;17.42;3.17;;;;;;;;;;5090058;28;20094;-70
2022/05/27 14:26:43;;;;;;;15.05;2.80;;;;;;;;;;5088858;28;20115;-71
2022/05/27 14:29:13;;;;;;;13.38;3.00;;;;;;;;;;5080902;28;20028;-72
2022/05/27 14:31:39;;;;;;;18.77;3.72;;;;;;;;;;5090032;28;20031;-70
2022/05/27 14:34:06;;;;;;;20.83;3.00;;;;;;;;;;5088249;28;20114;-70
2022/05/27 14:36:39;;;;;;;16.20;3.33;;;;;;;;;;5088848;28;20050;-72
2022/05/27 14:39:07;;;;;;;15.18;2.45;;;;;;;;;;5080008;28;20072;-72
2022/05/27 14:41:36;;;;;;;20.38;3.00;;;;;;;;;;5089795;28;20082;-72
2022/05/27 14:44:03;;;;;;;17.15;2.97;;;;;;;;;;5087206;28;20477;-72
2022/05/27 14:46:31;;;;;;;17.05;2.75;;;;;;;;;;5072142;28;20083;-72
2022/05/27 14:48:58;;;;;;;16.80;2.67;;;;;;;;;;5087078;28;20021;-72
2022/05/27 14:51:34;;;;;;;10.88;2.42;;;;;;;;;;5083846;28;20032;-70
2022/05/27 14:54:09;;;;;;;12.35;2.78;;;;;;;;;;5088935;28;20454;-69
2022/05/27 14:56:35;;;;;;;15.02;3.00;;;;;;;;;;5085465;28;20035;-70
2022/05/27 14:59:04;;;;;;;10.98;2.33;;;;;;;;;;5085947;28;20036;-70
2022/05/27 15:01:39;;;;;;;12.23;2.63;;;;;;;;;;5088786;28;20032;-71
2022/05/27 15:04:27;;;;;;;12.88;2.40;;;;;;;;;;5085604;28;20031;-71
2022/05/27 15:06:54;;;;;;;12.95;2.08;;;;;;;;;;5083444;28;20032;-71
2022/05/27 15:09:22;;;;;;;19.30;3.50;;;;;;;;;;5079213;28;20598;-72
2022/05/27 15:11:48;;;;;;;14.85;2.55;;;;;;;;;;5085502;28;20016;-70
2022/05/27 15:14:31;;;;;;;12.45;2.53;;;;;;;;;;5074762;28;20032;-71
2022/05/27 15:17:01;;;;;;;12.30;2.40;;;;;;;;;;5081740;28;20155;-71
2022/05/27 15:19:28;;;;;;;13.73;2.75;;;;;;;;;;5083820;28;20051;-72
2022/05/27 15:21:57;;;;;;;12.48;2.38;;;;;;;;;;5086166;28;20036;-72